sensor_id;sensor_type;location;lat;lon;timestamp;pressure;altitude;pressure_sealevel;temperature;humidity
58622;BME280;44389;51.578;5.456;2023-02-12T00:02:12;103733.41;;;6.11;100.00
58622;BME280;44389;51.578;5.456;2023-02-12T00:04:38;103732.06;;;6.06;100.00
58622;BME280;44389;51.578;5.456;2023-02-12T00:07:03;103729.50;;;6.06;100.00
58622;BME280;44389;51.578;5.456;2023-02-12T00:09:28;103734.63;;;6.06;100.00
58622;BME280;44389;51.578;5.456;2023-02-12T00:11:54;103739.00;;;6.07;100.00
58622;BME280;44389;51.578;5.456;2023-02-12T00:14:19;103736.28;;;6.05;100.00
58622;BME280;44389;51.578;5.456;2023-02-12T00:16:44;103742.31;;;6.06;100.00
58622;BME280;44389;51.578;5.456;2023-02-12T00:19:09;103742.31;;;6.06;100.00
58622;BME280;44389;51.578;5.456;2023-02-12T00:21:35;103737.19;;;6.06;100.00
58622;BME280;44389;51.578;5.456;2023-02-12T00:24:01;103737.19;;;5.97;100.00
58622;BME280;44389;51.578;5.456;2023-02-12T00:26:26;103731.94;;;5.96;100.00
58622;BME280;44389;51.578;5.456;2023-02-12T00:28:52;103738.06;;;5.98;100.00
58622;BME280;44389;51.578;5.456;2023-02-12T00:31:22;103735.22;;;5.94;100.00
58622;BME280;44389;51.578;5.456;2023-02-12T00:33:48;103741.09;;;5.93;100.00
58622;BME280;44389;51.578;5.456;2023-02-12T00:36:16;103742.03;;;5.94;100.00
58622;BME280;44389;51.578;5.456;2023-02-12T00:38:42;103750.88;;;5.98;100.00
58622;BME280;44389;51.578;5.456;2023-02-12T00:41:07;103756.00;;;5.98;100.00
58622;BME280;44389;51.578;5.456;2023-02-12T00:43:33;103756.00;;;5.98;100.00
58622;BME280;44389;51.578;5.456;2023-02-12T00:45:58;103751.34;;;5.93;100.00
58622;BME280;44389;51.578;5.456;2023-02-12T00:48:24;103748.19;;;5.96;100.00
58622;BME280;44389;51.578;5.456;2023-02-12T00:50:49;103743.84;;;5.86;100.00
58622;BME280;44389;51.578;5.456;2023-02-12T00:53:15;103736.94;;;5.85;100.00
58622;BME280;44389;51.578;5.456;2023-02-12T00:55:40;103736.19;;;5.86;100.00
58622;BME280;44389;51.578;5.456;2023-02-12T00:58:06;103737.19;;;5.88;100.00
58622;BME280;44389;51.578;5.456;2023-02-12T01:00:32;103735.38;;;5.87;100.00
58622;BME280;44389;51.578;5.456;2023-02-12T01:02:58;103733.78;;;5.79;100.00
58622;BME280;44389;51.578;5.456;2023-02-12T01:05:23;103733.03;;;5.71;100.00
58622;BME280;44389;51.578;5.456;2023-02-12T01:07:49;103735.13;;;5.67;100.00
58622;BME280;44389;51.578;5.456;2023-02-12T01:10:15;103740.56;;;5.70;100.00
58622;BME280;44389;51.578;5.456;2023-02-12T01:12:41;103737.09;;;5.69;100.00
58622;BME280;44389;51.578;5.456;2023-02-12T01:15:07;103739.81;;;5.71;100.00
58622;BME280;44389;51.578;5.456;2023-02-12T01:17:35;103733.66;;;5.69;100.00
58622;BME280;44389;51.578;5.456;2023-02-12T01:20:00;103735.47;;;5.70;100.00
58622;BME280;44389;51.578;5.456;2023-02-12T01:22:26;103733.63;;;5.77;100.00
58622;BME280;44389;51.578;5.456;2023-02-12T01:24:51;103731.25;;;5.61;100.00
58622;BME280;44389;51.578;5.456;2023-02-12T01:27:16;103732.16;;;5.62;100.00
58622;BME280;44389;51.578;5.456;2023-02-12T01:29:42;103728.13;;;5.55;100.00
58622;BME280;44389;51.578;5.456;2023-02-12T01:32:09;103735.78;;;5.55;100.00
58622;BME280;44389;51.578;5.456;2023-02-12T01:34:35;103730.34;;;5.52;100.00
58622;BME280;44389;51.578;5.456;2023-02-12T01:37:01;103738.16;;;5.54;100.00
58622;BME280;44389;51.578;5.456;2023-02-12T01:39:26;103728.25;;;5.57;100.00
58622;BME280;44389;51.578;5.456;2023-02-12T01:41:51;103720.44;;;5.55;100.00
58622;BME280;44389;51.578;5.456;2023-02-12T01:44:21;103736.53;;;5.54;100.00
58622;BME280;44389;51.578;5.456;2023-02-12T01:46:49;103731.41;;;5.54;100.00
58622;BME280;44389;51.578;5.456;2023-02-12T01:49:44;103731.09;;;5.51;100.00
58622;BME280;44389;51.578;5.456;2023-02-12T01:52:19;103731.88;;;5.50;100.00
58622;BME280;44389;51.578;5.456;2023-02-12T01:54:49;103729.47;;;5.43;100.00
58622;BME280;44389;51.578;5.456;2023-02-12T01:57:15;103727.94;;;5.63;100.00
58622;BME280;44389;51.578;5.456;2023-02-12T01:59:43;103722.25;;;5.48;100.00
58622;BME280;44389;51.578;5.456;2023-02-12T02:02:09;103724.63;;;5.46;100.00
58622;BME280;44389;51.578;5.456;2023-02-12T02:04:39;103730.69;;;5.47;100.00
58622;BME280;44389;51.578;5.456;2023-02-12T02:07:07;103723.28;;;5.58;100.00
58622;BME280;44389;51.578;5.456;2023-02-12T02:09:35;103727.66;;;5.51;100.00
58622;BME280;44389;51.578;5.456;2023-02-12T02:12:01;103726.44;;;5.65;100.00
58622;BME280;44389;51.578;5.456;2023-02-12T02:14:46;103714.41;;;5.46;100.00
58622;BME280;44389;51.578;5.456;2023-02-12T02:17:23;103722.09;;;5.46;100.00
58622;BME280;44389;51.578;5.456;2023-02-12T02:26:03;103720.13;;;5.52;100.00
58622;BME280;44389;51.578;5.456;2023-02-12T02:28:49;103715.63;;;5.50;100.00
58622;BME280;44389;51.578;5.456;2023-02-12T02:31:23;103722.69;;;5.52;100.00
58622;BME280;44389;51.578;5.456;2023-02-12T02:34:10;103719.22;;;5.52;100.00
58622;BME280;44389;51.578;5.456;2023-02-12T02:36:44;103730.34;;;5.52;100.00
58622;BME280;44389;51.578;5.456;2023-02-12T02:39:16;103725.69;;;5.48;100.00
58622;BME280;44389;51.578;5.456;2023-02-12T02:44:35;103716.53;;;5.50;100.00
58622;BME280;44389;51.578;5.456;2023-02-12T02:47:04;103721.66;;;5.50;100.00
58622;BME280;44389;51.578;5.456;2023-02-12T02:49:39;103721.78;;;5.52;100.00
58622;BME280;44389;51.578;5.456;2023-02-12T02:52:10;103727.19;;;5.46;100.00
58622;BME280;44389;51.578;5.456;2023-02-12T02:54:42;103720.44;;;5.47;100.00
58622;BME280;44389;51.578;5.456;2023-02-12T02:57:21;103726.78;;;5.50;100.00
58622;BME280;44389;51.578;5.456;2023-02-12T02:59:55;103726.78;;;5.50;100.00
58622;BME280;44389;51.578;5.456;2023-02-12T03:02:27;103722.53;;;5.51;100.00
58622;BME280;44389;51.578;5.456;2023-02-12T03:05:06;103715.94;;;5.53;100.00
58622;BME280;44389;51.578;5.456;2023-02-12T03:07:36;103712.03;;;5.39;100.00
58622;BME280;44389;51.578;5.456;2023-02-12T03:10:06;103719.84;;;5.40;100.00
58622;BME280;44389;51.578;5.456;2023-02-12T03:12:33;103713.53;;;5.37;100.00
58622;BME280;44389;51.578;5.456;2023-02-12T03:15:07;103712.78;;;5.38;100.00
58622;BME280;44389;51.578;5.456;2023-02-12T03:17:37;103709.34;;;5.37;100.00
58622;BME280;44389;51.578;5.456;2023-02-12T03:20:07;103718.63;;;5.37;100.00
58622;BME280;44389;51.578;5.456;2023-02-12T03:22:38;103710.97;;;5.37;100.00
58622;BME280;44389;51.578;5.456;2023-02-12T03:25:13;103706.91;;;5.39;100.00
58622;BME280;44389;51.578;5.456;2023-02-12T03:27:42;103710.97;;;5.37;100.00
58622;BME280;44389;51.578;5.456;2023-02-12T03:30:09;103714.59;;;5.39;100.00
58622;BME280;44389;51.578;5.456;2023-02-12T03:33:01;103707.06;;;5.40;100.00
58622;BME280;44389;51.578;5.456;2023-02-12T03:35:54;103712.03;;;5.39;100.00
58622;BME280;44389;51.578;5.456;2023-02-12T03:41:11;103713.09;;;5.32;100.00
58622;BME280;44389;51.578;5.456;2023-02-12T03:43:48;103709.16;;;5.36;100.00
58622;BME280;44389;51.578;5.456;2023-02-12T03:49:11;103710.06;;;5.27;100.00
58622;BME280;44389;51.578;5.456;2023-02-12T03:51:43;103700.91;;;5.30;100.00
58622;BME280;44389;51.578;5.456;2023-02-12T03:54:10;103709.34;;;5.28;100.00
58622;BME280;44389;51.578;5.456;2023-02-12T03:56:43;103710.06;;;5.27;100.00
58622;BME280;44389;51.578;5.456;2023-02-12T03:59:13;103707.38;;;5.35;100.00
58622;BME280;44389;51.578;5.456;2023-02-12T04:01:39;103705.44;;;5.32;100.00
58622;BME280;44389;51.578;5.456;2023-02-12T04:04:06;103708.59;;;5.30;100.00
58622;BME280;44389;51.578;5.456;2023-02-12T04:06:32;103705.56;;;5.34;100.00
58622;BME280;44389;51.578;5.456;2023-02-12T04:09:01;103711.59;;;5.25;100.00
58622;BME280;44389;51.578;5.456;2023-02-12T04:14:47;103717.75;;;5.36;100.00
58622;BME280;44389;51.578;5.456;2023-02-12T04:23:21;103727.84;;;5.35;100.00
58622;BME280;44389;51.578;5.456;2023-02-12T04:31:38;103735.50;;;5.26;100.00
58622;BME280;44389;51.578;5.456;2023-02-12T04:34:11;103737.03;;;5.15;100.00
58622;BME280;44389;51.578;5.456;2023-02-12T04:36:56;103738.38;;;5.20;100.00
58622;BME280;44389;51.578;5.456;2023-02-12T04:39:26;103736.25;;;5.16;100.00
58622;BME280;44389;51.578;5.456;2023-02-12T04:41:53;103743.63;;;5.22;100.00
58622;BME280;44389;51.578;5.456;2023-02-12T04:44:24;103739.72;;;5.17;100.00
58622;BME280;44389;51.578;5.456;2023-02-12T04:46:50;103741.81;;;5.12;100.00
58622;BME280;44389;51.578;5.456;2023-02-12T04:49:17;103743.00;;;5.07;100.00
58622;BME280;44389;51.578;5.456;2023-02-12T04:51:43;103740.00;;;5.11;100.00
58622;BME280;44389;51.578;5.456;2023-02-12T04:54:09;103741.66;;;5.10;100.00
58622;BME280;44389;51.578;5.456;2023-02-12T04:56:35;103739.72;;;5.17;100.00
58622;BME280;44389;51.578;5.456;2023-02-12T04:59:00;103743.63;;;5.22;100.00
58622;BME280;44389;51.578;5.456;2023-02-12T05:01:25;103736.09;;;5.23;100.00
58622;BME280;44389;51.578;5.456;2023-02-12T05:03:51;103742.72;;;5.21;100.00
58622;BME280;44389;51.578;5.456;2023-02-12T05:06:17;103743.63;;;5.22;100.00
58622;BME280;44389;51.578;5.456;2023-02-12T05:08:42;103741.06;;;5.13;100.00
58622;BME280;44389;51.578;5.456;2023-02-12T05:11:09;103745.44;;;5.14;100.00
58622;BME280;44389;51.578;5.456;2023-02-12T05:13:35;103741.53;;;5.09;100.00
58622;BME280;44389;51.578;5.456;2023-02-12T05:16:05;103740.00;;;5.11;100.00
58622;BME280;44389;51.578;5.456;2023-02-12T05:18:31;103741.81;;;5.12;100.00
58622;BME280;44389;51.578;5.456;2023-02-12T05:20:57;103739.41;;;5.14;100.00
58622;BME280;44389;51.578;5.456;2023-02-12T05:23:32;103742.28;;;5.17;100.00
58622;BME280;44389;51.578;5.456;2023-02-12T05:25:58;103749.81;;;5.15;100.00
58622;BME280;44389;51.578;5.456;2023-02-12T05:28:25;103751.75;;;5.18;100.00
58622;BME280;44389;51.578;5.456;2023-02-12T05:30:50;103742.44;;;5.18;100.00
58622;BME280;44389;51.578;5.456;2023-02-12T05:33:15;103744.25;;;5.19;100.00
58622;BME280;44389;51.578;5.456;2023-02-12T05:35:41;103751.91;;;5.19;100.00
58622;BME280;44389;51.578;5.456;2023-02-12T05:38:06;103743.16;;;5.17;100.00
58622;BME280;44389;51.578;5.456;2023-02-12T05:40:31;103746.66;;;5.18;100.00
58622;BME280;44389;51.578;5.456;2023-02-12T05:42:57;103741.22;;;5.23;100.00
58622;BME280;44389;51.578;5.456;2023-02-12T05:45:22;103750.25;;;5.28;100.00
58622;BME280;44389;51.578;5.456;2023-02-12T05:47:52;103744.06;;;5.26;100.00
58622;BME280;44389;51.578;5.456;2023-02-12T05:50:17;103751.91;;;5.28;100.00
58622;BME280;44389;51.578;5.456;2023-02-12T05:52:43;103748.44;;;5.27;100.00
58622;BME280;44389;51.578;5.456;2023-02-12T05:55:08;103745.44;;;5.23;100.00
58622;BME280;44389;51.578;5.456;2023-02-12T05:57:33;103744.84;;;5.25;100.00
58622;BME280;44389;51.578;5.456;2023-02-12T05:59:59;103756.09;;;5.27;100.00
58622;BME280;44389;51.578;5.456;2023-02-12T06:02:24;103755.97;;;5.26;100.00
58622;BME280;44389;51.578;5.456;2023-02-12T06:04:49;103752.66;;;5.27;100.00
58622;BME280;44389;51.578;5.456;2023-02-12T06:07:14;103753.56;;;5.27;100.00
58622;BME280;44389;51.578;5.456;2023-02-12T06:09:40;103755.97;;;5.26;100.00
58622;BME280;44389;51.578;5.456;2023-02-12T06:12:05;103763.50;;;5.24;100.00
58622;BME280;44389;51.578;5.456;2023-02-12T06:14:30;103759.25;;;5.25;100.00
58622;BME280;44389;51.578;5.456;2023-02-12T06:16:56;103756.84;;;5.26;100.00
58622;BME280;44389;51.578;5.456;2023-02-12T06:19:21;103758.53;;;5.26;100.00
58622;BME280;44389;51.578;5.456;2023-02-12T06:21:47;103764.53;;;5.26;100.00
58622;BME280;44389;51.578;5.456;2023-02-12T06:24:14;103763.78;;;5.27;100.00
58622;BME280;44389;51.578;5.456;2023-02-12T06:26:40;103764.06;;;5.31;100.00
58622;BME280;44389;51.578;5.456;2023-02-12T06:29:06;103762.56;;;5.33;100.00
58622;BME280;44389;51.578;5.456;2023-02-12T06:31:33;103765.00;;;5.31;100.00
58622;BME280;44389;51.578;5.456;2023-02-12T06:34:02;103766.03;;;5.33;100.00
58622;BME280;44389;51.578;5.456;2023-02-12T06:36:27;103769.19;;;5.31;100.00
58622;BME280;44389;51.578;5.456;2023-02-12T06:38:53;103768.56;;;5.33;100.00
58622;BME280;44389;51.578;5.456;2023-02-12T06:41:19;103772.06;;;5.34;100.00
58622;BME280;44389;51.578;5.456;2023-02-12T06:43:44;103767.97;;;5.36;100.00
58622;BME280;44389;51.578;5.456;2023-02-12T06:46:10;103762.44;;;5.40;100.00
58622;BME280;44389;51.578;5.456;2023-02-12T06:48:35;103774.63;;;5.34;100.00
58622;BME280;44389;51.578;5.456;2023-02-12T06:51:12;103779.00;;;5.35;100.00
58622;BME280;44389;51.578;5.456;2023-02-12T06:53:37;103776.44;;;5.35;100.00
58622;BME280;44389;51.578;5.456;2023-02-12T06:56:05;103774.63;;;5.34;100.00
58622;BME280;44389;51.578;5.456;2023-02-12T06:58:31;103775.66;;;5.36;100.00
58622;BME280;44389;51.578;5.456;2023-02-12T07:00:56;103776.44;;;5.35;100.00
58622;BME280;44389;51.578;5.456;2023-02-12T07:03:31;103777.47;;;5.37;100.00
58622;BME280;44389;51.578;5.456;2023-02-12T07:05:56;103789.50;;;5.38;100.00
58622;BME280;44389;51.578;5.456;2023-02-12T07:08:21;103789.03;;;5.42;100.00
58622;BME280;44389;51.578;5.456;2023-02-12T07:10:47;103788.91;;;5.40;100.00
58622;BME280;44389;51.578;5.456;2023-02-12T07:13:13;103792.94;;;5.38;100.00
58622;BME280;44389;51.578;5.456;2023-02-12T07:15:38;103790.56;;;5.40;100.00
58622;BME280;44389;51.578;5.456;2023-02-12T07:18:04;103789.66;;;5.39;100.00
58622;BME280;44389;51.578;5.456;2023-02-12T07:20:29;103790.41;;;5.38;100.00
58622;BME280;44389;51.578;5.456;2023-02-12T07:22:55;103797.47;;;5.41;100.00
58622;BME280;44389;51.578;5.456;2023-02-12T07:25:20;103794.91;;;5.41;100.00
58622;BME280;44389;51.578;5.456;2023-02-12T07:27:45;103790.84;;;5.43;100.00
58622;BME280;44389;51.578;5.456;2023-02-12T07:30:11;103795.22;;;5.44;100.00
58622;BME280;44389;51.578;5.456;2023-02-12T07:32:36;103798.06;;;5.47;100.00
58622;BME280;44389;51.578;5.456;2023-02-12T07:35:01;103788.72;;;5.56;100.00
58622;BME280;44389;51.578;5.456;2023-02-12T07:37:27;103795.84;;;5.50;100.00
58622;BME280;44389;51.578;5.456;2023-02-12T07:39:52;103803.50;;;5.50;100.00
58622;BME280;44389;51.578;5.456;2023-02-12T07:42:17;103804.69;;;5.54;100.00
58622;BME280;44389;51.578;5.456;2023-02-12T07:44:43;103805.47;;;5.53;100.00
58622;BME280;44389;51.578;5.456;2023-02-12T07:47:09;103811.00;;;5.57;100.00
58622;BME280;44389;51.578;5.456;2023-02-12T07:49:34;103814.31;;;5.56;100.00
58622;BME280;44389;51.578;5.456;2023-02-12T07:52:00;103817.47;;;5.63;100.00
58622;BME280;44389;51.578;5.456;2023-02-12T07:54:25;103808.91;;;5.62;100.00
58622;BME280;44389;51.578;5.456;2023-02-12T07:56:50;103818.56;;;5.65;100.00
58622;BME280;44389;51.578;5.456;2023-02-12T07:59:17;103816.88;;;5.65;100.00
58622;BME280;44389;51.578;5.456;2023-02-12T08:01:46;103809.19;;;5.65;100.00
58622;BME280;44389;51.578;5.456;2023-02-12T08:04:15;103811.91;;;5.67;100.00
58622;BME280;44389;51.578;5.456;2023-02-12T08:06:42;103806.19;;;5.78;100.00
58622;BME280;44389;51.578;5.456;2023-02-12T08:09:11;103817.75;;;5.83;100.00
58622;BME280;44389;51.578;5.456;2023-02-12T08:11:38;103817.31;;;5.87;100.00
58622;BME280;44389;51.578;5.456;2023-02-12T08:14:04;103812.19;;;5.87;100.00
58622;BME280;44389;51.578;5.456;2023-02-12T08:16:35;103813.72;;;5.85;100.00
58622;BME280;44389;51.578;5.456;2023-02-12T08:19:00;103807.41;;;5.99;100.00
58622;BME280;44389;51.578;5.456;2023-02-12T08:21:27;103818.66;;;6.01;100.00
58622;BME280;44389;51.578;5.456;2023-02-12T08:23:54;103818.81;;;6.03;100.00
58622;BME280;44389;51.578;5.456;2023-02-12T08:28:53;103823.78;;;6.10;100.00
58622;BME280;44389;51.578;5.456;2023-02-12T08:31:26;103834.75;;;6.18;100.00
58622;BME280;44389;51.578;5.456;2023-02-12T08:33:52;103832.06;;;6.16;100.00
58622;BME280;44389;51.578;5.456;2023-02-12T08:36:21;103827.53;;;6.22;100.00
58622;BME280;44389;51.578;5.456;2023-02-12T08:38:47;103831.44;;;6.28;100.00
58622;BME280;44389;51.578;5.456;2023-02-12T08:41:24;103837.78;;;6.22;100.00
58622;BME280;44389;51.578;5.456;2023-02-12T08:43:52;103834.13;;;6.38;100.00
58622;BME280;44389;51.578;5.456;2023-02-12T08:46:23;103838.63;;;6.40;100.00
58622;BME280;44389;51.578;5.456;2023-02-12T08:48:52;103840.09;;;6.47;100.00
58622;BME280;44389;51.578;5.456;2023-02-12T08:51:20;103844.00;;;6.52;100.00
58622;BME280;44389;51.578;5.456;2023-02-12T08:53:47;103837.69;;;6.49;100.00
58622;BME280;44389;51.578;5.456;2023-02-12T08:56:15;103845.50;;;6.50;100.00
58622;BME280;44389;51.578;5.456;2023-02-12T08:58:42;103842.91;;;6.59;100.00
58622;BME280;44389;51.578;5.456;2023-02-12T09:01:09;103843.34;;;6.64;100.00
58622;BME280;44389;51.578;5.456;2023-02-12T09:03:35;103849.03;;;6.70;100.00
58622;BME280;44389;51.578;5.456;2023-02-12T09:06:06;103848.16;;;6.69;100.00
58622;BME280;44389;51.578;5.456;2023-02-12T09:08:32;103839.97;;;6.73;100.00
58622;BME280;44389;51.578;5.456;2023-02-12T09:10:58;103847.53;;;6.72;100.00
58622;BME280;44389;51.578;5.456;2023-02-12T09:13:24;103850.22;;;6.73;100.00
58622;BME280;44389;51.578;5.456;2023-02-12T09:15:50;103846.66;;;6.71;100.00
58622;BME280;44389;51.578;5.456;2023-02-12T09:18:15;103845.34;;;6.85;100.00
58622;BME280;44389;51.578;5.456;2023-02-12T09:20:43;103854.84;;;6.86;100.00
58622;BME280;44389;51.578;5.456;2023-02-12T09:23:10;103853.00;;;6.94;100.00
58622;BME280;44389;51.578;5.456;2023-02-12T09:25:43;103857.81;;;7.00;100.00
58622;BME280;44389;51.578;5.456;2023-02-12T09:28:09;103852.19;;;7.04;100.00
58622;BME280;44389;51.578;5.456;2023-02-12T09:30:36;103854.28;;;7.08;100.00
58622;BME280;44389;51.578;5.456;2023-02-12T09:33:03;103853.78;;;7.12;100.00
58622;BME280;44389;51.578;5.456;2023-02-12T09:35:29;103856.94;;;7.18;99.36
58622;BME280;44389;51.578;5.456;2023-02-12T09:37:54;103858.38;;;7.25;99.61
58622;BME280;44389;51.578;5.456;2023-02-12T09:41:00;103857.00;;;7.29;98.94
58622;BME280;44389;51.578;5.456;2023-02-12T09:46:18;103857.50;;;7.24;95.83
58622;BME280;44389;51.578;5.456;2023-02-12T09:51:44;103862.22;;;7.39;96.47
58622;BME280;44389;51.578;5.456;2023-02-12T09:54:15;103865.34;;;7.45;96.84
58622;BME280;44389;51.578;5.456;2023-02-12T09:56:44;103858.41;;;7.44;97.09
58622;BME280;44389;51.578;5.456;2023-02-12T09:59:15;103860.97;;;7.44;96.83
58622;BME280;44389;51.578;5.456;2023-02-12T10:01:45;103857.03;;;7.48;96.33
58622;BME280;44389;51.578;5.456;2023-02-12T10:04:11;103855.34;;;7.48;96.35
58622;BME280;44389;51.578;5.456;2023-02-12T10:06:45;103867.69;;;7.52;95.86
58622;BME280;44389;51.578;5.456;2023-02-12T10:09:49;103862.38;;;7.60;96.44
58622;BME280;44389;51.578;5.456;2023-02-12T10:15:14;103869.94;;;7.58;94.60
58622;BME280;44389;51.578;5.456;2023-02-12T10:17:47;103866.25;;;7.65;94.72
58622;BME280;44389;51.578;5.456;2023-02-12T10:23:35;103867.97;;;7.74;93.98
58622;BME280;44389;51.578;5.456;2023-02-12T10:26:15;103868.13;;;7.76;95.02
58622;BME280;44389;51.578;5.456;2023-02-12T10:28:42;103866.19;;;7.73;93.45
58622;BME280;44389;51.578;5.456;2023-02-12T10:31:20;103859.50;;;7.75;93.43
58622;BME280;44389;51.578;5.456;2023-02-12T10:33:49;103861.19;;;7.75;93.64
58622;BME280;44389;51.578;5.456;2023-02-12T10:39:11;103863.19;;;7.69;93.20
58622;BME280;44389;51.578;5.456;2023-02-12T10:41:45;103866.88;;;7.81;93.59
58622;BME280;44389;51.578;5.456;2023-02-12T10:44:12;103855.81;;;7.82;94.02
58622;BME280;44389;51.578;5.456;2023-02-12T10:46:38;103852.47;;;7.83;93.96
58622;BME280;44389;51.578;5.456;2023-02-12T10:49:04;103861.25;;;7.85;94.44
58622;BME280;44389;51.578;5.456;2023-02-12T10:57:21;103851.78;;;7.95;95.35
58622;BME280;44389;51.578;5.456;2023-02-12T10:59:50;103856.91;;;7.95;95.48
58622;BME280;44389;51.578;5.456;2023-02-12T11:02:19;103853.84;;;7.99;95.08
58622;BME280;44389;51.578;5.456;2023-02-12T11:04:45;103855.75;;;7.91;94.55
58622;BME280;44389;51.578;5.456;2023-02-12T11:07:10;103850.94;;;8.04;94.85
58622;BME280;44389;51.578;5.456;2023-02-12T11:09:42;103860.59;;;8.07;93.59
58622;BME280;44389;51.578;5.456;2023-02-12T11:12:40;103855.50;;;8.17;93.43
58622;BME280;44389;51.578;5.456;2023-02-12T11:15:19;103848.88;;;8.11;92.53
58622;BME280;44389;51.578;5.456;2023-02-12T11:17:55;103847.00;;;8.18;91.36
58622;BME280;44389;51.578;5.456;2023-02-12T11:20:26;103845.47;;;8.20;91.71
58622;BME280;44389;51.578;5.456;2023-02-12T11:22:56;103844.72;;;8.21;91.33
58622;BME280;44389;51.578;5.456;2023-02-12T11:25:25;103849.09;;;8.22;90.76
58622;BME280;44389;51.578;5.456;2023-02-12T11:30:34;103841.13;;;8.30;90.89
58622;BME280;44389;51.578;5.456;2023-02-12T11:33:34;103846.56;;;8.33;91.00
58622;BME280;44389;51.578;5.456;2023-02-12T11:36:03;103838.06;;;8.34;90.89
58622;BME280;44389;51.578;5.456;2023-02-12T11:38:35;103840.78;;;8.35;90.77
58622;BME280;44389;51.578;5.456;2023-02-12T11:43:47;103832.03;;;8.33;89.01
58622;BME280;44389;51.578;5.456;2023-02-12T11:46:18;103838.69;;;8.31;89.04
58622;BME280;44389;51.578;5.456;2023-02-12T11:48:46;103828.31;;;8.40;90.19
58622;BME280;44389;51.578;5.456;2023-02-12T11:51:19;103823.16;;;8.40;89.44
58622;BME280;44389;51.578;5.456;2023-02-12T11:53:49;103829.22;;;8.40;88.70
58622;BME280;44389;51.578;5.456;2023-02-12T11:56:16;103824.97;;;8.41;88.35
58622;BME280;44389;51.578;5.456;2023-02-12T11:58:42;103828.88;;;8.46;87.33
58622;BME280;44389;51.578;5.456;2023-02-12T12:01:15;103826.25;;;8.36;86.21
58622;BME280;44389;51.578;5.456;2023-02-12T12:03:59;103824.97;;;8.41;86.45
58622;BME280;44389;51.578;5.456;2023-02-12T12:11:37;103822.06;;;8.47;85.02
58622;BME280;44389;51.578;5.456;2023-02-12T12:14:25;103818.03;;;8.40;84.60
58622;BME280;44389;51.578;5.456;2023-02-12T12:17:01;103821.75;;;8.33;84.94
58622;BME280;44389;51.578;5.456;2023-02-12T12:19:52;103815.84;;;8.34;84.92
58622;BME280;44389;51.578;5.456;2023-02-12T12:22:35;103818.16;;;8.41;85.47
58622;BME280;44389;51.578;5.456;2023-02-12T12:25:15;103808.44;;;8.48;84.87
58622;BME280;44389;51.578;5.456;2023-02-12T12:30:52;103814.00;;;8.52;85.35
58622;BME280;44389;51.578;5.456;2023-02-12T12:33:45;103819.03;;;8.61;86.04
58622;BME280;44389;51.578;5.456;2023-02-12T12:39:05;103805.00;;;8.57;85.90
58622;BME280;44389;51.578;5.456;2023-02-12T12:44:38;103806.91;;;8.50;85.06
58622;BME280;44389;51.578;5.456;2023-02-12T12:55:14;103789.56;;;8.47;84.75
58622;BME280;44389;51.578;5.456;2023-02-12T13:00:29;103785.91;;;8.45;85.18
58622;BME280;44389;51.578;5.456;2023-02-12T13:08:38;103775.03;;;8.58;87.16
58622;BME280;44389;51.578;5.456;2023-02-12T13:13:50;103764.81;;;8.39;85.10
58622;BME280;44389;51.578;5.456;2023-02-12T13:16:40;103766.63;;;8.40;86.55
58622;BME280;44389;51.578;5.456;2023-02-12T13:29:30;103755.97;;;8.25;84.64
58622;BME280;44389;51.578;5.456;2023-02-12T13:32:04;103760.19;;;8.24;87.10
58622;BME280;44389;51.578;5.456;2023-02-12T13:34:33;103751.72;;;8.26;87.08
58622;BME280;44389;51.578;5.456;2023-02-12T13:37:00;103755.03;;;8.24;85.39
58622;BME280;44389;51.578;5.456;2023-02-12T13:39:30;103762.63;;;8.23;84.98
58622;BME280;44389;51.578;5.456;2023-02-12T13:42:08;103753.63;;;8.18;85.65
58622;BME280;44389;51.578;5.456;2023-02-12T13:47:22;103755.94;;;8.15;87.01
58622;BME280;44389;51.578;5.456;2023-02-12T13:50:01;103746.00;;;8.09;87.17
58622;BME280;44389;51.578;5.456;2023-02-12T14:01:03;103734.56;;;8.05;89.13
58622;BME280;44389;51.578;5.456;2023-02-12T14:03:30;103734.44;;;8.04;88.18
58622;BME280;44389;51.578;5.456;2023-02-12T14:06:15;103728.66;;;8.06;87.40
58622;BME280;44389;51.578;5.456;2023-02-12T14:09:08;103731.34;;;8.08;88.07
58622;BME280;44389;51.578;5.456;2023-02-12T14:11:46;103732.38;;;8.00;88.63
58622;BME280;44389;51.578;5.456;2023-02-12T14:14:24;103727.88;;;7.97;88.09
58622;BME280;44389;51.578;5.456;2023-02-12T14:16:50;103721.84;;;7.97;88.74
58622;BME280;44389;51.578;5.456;2023-02-12T14:24:53;103731.06;;;7.95;87.13
58622;BME280;44389;51.578;5.456;2023-02-12T14:27:28;103730.31;;;7.96;87.54
58622;BME280;44389;51.578;5.456;2023-02-12T14:32:56;103715.03;;;7.97;87.78
58622;BME280;44389;51.578;5.456;2023-02-12T14:37:54;103724.63;;;7.89;87.00
58622;BME280;44389;51.578;5.456;2023-02-12T14:43:23;103724.91;;;7.93;89.10
58622;BME280;44389;51.578;5.456;2023-02-12T14:45:50;103719.88;;;7.84;87.53
58622;BME280;44389;51.578;5.456;2023-02-12T14:48:40;103718.75;;;7.90;87.58
58622;BME280;44389;51.578;5.456;2023-02-12T14:51:15;103722.56;;;7.85;88.28
58622;BME280;44389;51.578;5.456;2023-02-12T14:53:45;103722.56;;;7.85;89.06
58622;BME280;44389;51.578;5.456;2023-02-12T14:56:12;103719.25;;;7.86;89.38
58622;BME280;44389;51.578;5.456;2023-02-12T14:58:43;103719.25;;;7.86;88.96
58622;BME280;44389;51.578;5.456;2023-02-12T15:01:09;103713.31;;;7.87;87.39
58622;BME280;44389;51.578;5.456;2023-02-12T15:03:53;103719.50;;;7.89;89.00
58622;BME280;44389;51.578;5.456;2023-02-12T15:06:21;103715.09;;;7.78;88.24
58622;BME280;44389;51.578;5.456;2023-02-12T15:08:53;103721.28;;;7.80;88.49
58622;BME280;44389;51.578;5.456;2023-02-12T15:11:38;103706.00;;;7.82;89.74
58622;BME280;44389;51.578;5.456;2023-02-12T15:14:16;103707.41;;;7.78;90.03